Time;durP1;ratioP1;P1;durP2;ratioP2;P2;SDS_P1;SDS_P2;PMS_P1;PMS_P2;Temp;Humidity;BMP_temperature;BMP_pressure;BME280_temperature;BME280_humidity;BME280_pressure;Samples;Min_cycle;Max_cycle;Signal;HPM_P1;HPM_P2
2024/04/20 00:01:01;;;;;;;;;;;;;;;15.83;50.38;101329.23;107193;1270;25474;-56
2024/04/20 00:03:28;;;;;;;;;;;;;;;15.83;50.33;101331.50;107096;1254;25359;-56
2024/04/20 00:05:56;;;;;;;;;;;;;;;15.85;50.34;101338.80;107112;1265;25333;-56
2024/04/20 00:08:23;;;;;;;;;;;;;;;15.85;50.39;101335.65;107090;1256;25368;-56
2024/04/20 00:10:50;;;;;;;;;;;;;;;15.84;50.15;101335.50;107127;1257;25315;-56
2024/04/20 00:13:16;;;;;;;;;;;;;;;15.83;50.06;101330.11;107126;1263;25334;-56
2024/04/20 00:15:43;;;;;;;;;;;;;;;15.80;49.91;101336.33;107156;1257;25374;-56
2024/04/20 00:18:11;;;;;;;;;;;;;;;15.78;49.85;101340.08;106641;1257;622407;-56
2024/04/20 00:20:38;;;;;;;;;;;;;;;15.77;49.80;101342.41;106827;1260;23894;-56
2024/04/20 00:23:05;;;;;;;;;;;;;;;15.74;49.71;101342.48;107178;1257;25343;-56
2024/04/20 00:25:35;;;;;;;;;;;;;;;15.72;49.51;101347.11;106957;1267;25395;-57
2024/04/20 00:28:02;;;;;;;;;;;;;;;15.69;49.51;101352.83;107055;1263;25355;-57
2024/04/20 00:30:29;;;;;;;;;;;;;;;15.66;49.37;101353.94;107083;1254;24356;-56
2024/04/20 00:32:56;;;;;;;;;;;;;;;15.63;49.24;101350.02;107139;1263;22505;-57
2024/04/20 00:35:23;;;;;;;;;;;;;;;15.61;49.16;101345.23;106981;1270;25315;-56
2024/04/20 00:37:50;;;;;;;;;;;;;;;15.57;49.18;101338.89;106384;1263;1002446;-57
2024/04/20 00:40:17;;;;;;;;;;;;;;;15.54;49.47;101340.73;107203;1264;25430;-56
2024/04/20 00:42:44;;;;;;;;;;;;;;;15.52;49.42;101341.33;107138;1257;25363;-56
2024/04/20 00:45:11;;;;;;;;;;;;;;;15.49;49.32;101346.15;107127;1258;25471;-56
2024/04/20 00:47:38;;;;;;;;;;;;;;;15.46;49.38;101350.77;107085;1256;25334;-57
2024/04/20 00:50:06;;;;;;;;;;;;;;;15.45;49.57;101351.52;107071;1265;25376;-57
2024/04/20 00:52:34;;;;;;;;;;;;;;;15.43;50.00;101346.67;107249;1254;23856;-57
2024/04/20 00:55:01;;;;;;;;;;;;;;;15.42;50.23;101339.17;106894;1271;22504;-56
2024/04/20 00:57:28;;;;;;;;;;;;;;;15.39;50.37;101334.71;107186;1260;25529;-57
2024/04/20 00:59:55;;;;;;;;;;;;;;;15.36;50.49;101337.94;107087;1266;25382;-57
2024/04/20 01:02:22;;;;;;;;;;;;;;;15.34;50.80;101335.95;107080;1263;25369;-57
2024/04/20 01:04:49;;;;;;;;;;;;;;;15.31;50.89;101335.67;107119;1262;25507;-57
2024/04/20 01:07:16;;;;;;;;;;;;;;;15.30;51.00;101335.19;107214;1264;25322;-58
2024/04/20 01:09:43;;;;;;;;;;;;;;;15.29;51.10;101334.52;107116;1266;25334;-57
2024/04/20 01:12:10;;;;;;;;;;;;;;;15.29;51.22;101334.52;106874;1266;25315;-57
2024/04/20 01:14:37;;;;;;;;;;;;;;;15.29;51.35;101336.98;106883;1270;25325;-57
2024/04/20 01:17:04;;;;;;;;;;;;;;;15.28;51.46;101333.84;107011;1263;25321;-56
2024/04/20 01:19:31;;;;;;;;;;;;;;;15.28;51.61;101336.46;106992;1264;25346;-57
2024/04/20 01:21:58;;;;;;;;;;;;;;;15.28;51.65;101332.81;107147;1266;22544;-56
2024/04/20 01:24:25;;;;;;;;;;;;;;;15.27;51.79;101330.23;107063;1260;25319;-56
2024/04/20 01:26:53;;;;;;;;;;;;;;;15.25;51.96;101326.08;107137;1266;25474;-56
2024/04/20 01:29:20;;;;;;;;;;;;;;;15.23;52.12;101320.71;106613;1268;22603;-56
2024/04/20 01:31:47;;;;;;;;;;;;;;;15.21;52.19;101321.30;106773;1260;25363;-57
2024/04/20 01:34:13;;;;;;;;;;;;;;;15.21;52.38;101321.48;106465;1273;25420;-56
2024/04/20 01:36:41;;;;;;;;;;;;;;;15.20;52.49;101319.95;106935;1264;25327;-57
2024/04/20 01:39:08;;;;;;;;;;;;;;;15.19;52.45;101318.23;106949;1260;25466;-56
2024/04/20 01:41:34;;;;;;;;;;;;;;;15.18;52.61;101317.92;106865;1260;25334;-56
2024/04/20 01:44:02;;;;;;;;;;;;;;;15.17;52.80;101320.73;107214;1259;25334;-57
2024/04/20 01:46:29;;;;;;;;;;;;;;;15.19;52.80;101319.28;106831;1266;25399;-57
2024/04/20 01:48:56;;;;;;;;;;;;;;;15.21;52.81;101320.09;107196;1257;24362;-58
2024/04/20 01:51:23;;;;;;;;;;;;;;;15.22;53.09;101326.01;106766;1264;22644;-57
2024/04/20 01:53:49;;;;;;;;;;;;;;;15.22;53.34;101326.02;107100;1264;25343;-56
2024/04/20 01:56:16;;;;;;;;;;;;;;;15.23;53.53;101325.80;107094;1263;22647;-57
2024/04/20 01:58:43;;;;;;;;;;;;;;;15.24;53.77;101324.90;107043;1257;25313;-57
2024/04/20 02:01:10;;;;;;;;;;;;;;;15.24;53.86;101328.03;106876;1274;25350;-57
2024/04/20 02:03:37;;;;;;;;;;;;;;;15.23;53.93;101327.71;107128;1267;25398;-56
2024/04/20 02:06:04;;;;;;;;;;;;;;;15.22;54.05;101324.94;107182;1260;25325;-57
2024/04/20 02:08:32;;;;;;;;;;;;;;;15.23;54.03;101324.21;107134;1255;25485;-57
2024/04/20 02:10:58;;;;;;;;;;;;;;;15.24;53.82;101324.02;107191;1260;25315;-56
2024/04/20 02:13:25;;;;;;;;;;;;;;;15.23;53.77;101326.84;107049;1257;25306;-57
2024/04/20 02:15:54;;;;;;;;;;;;;;;15.22;53.74;101323.89;107101;1256;22509;-57
2024/04/20 02:18:21;;;;;;;;;;;;;;;15.22;53.78;101324.43;107090;1257;24193;-57
2024/04/20 02:20:49;;;;;;;;;;;;;;;15.21;53.95;101321.83;107116;1263;25464;-56
2024/04/20 02:23:16;;;;;;;;;;;;;;;15.19;54.08;101317.69;107119;1251;24209;-56
2024/04/20 02:25:44;;;;;;;;;;;;;;;15.18;54.14;101314.77;107108;1263;25382;-57
2024/04/20 02:28:11;;;;;;;;;;;;;;;15.19;54.23;101308.96;107145;1257;25359;-56
2024/04/20 02:30:38;;;;;;;;;;;;;;;15.19;54.24;101306.34;107155;1263;25362;-57
2024/04/20 02:33:05;;;;;;;;;;;;;;;15.18;54.23;101303.41;107103;1254;25324;-56
2024/04/20 02:35:37;;;;;;;;;;;;;;;15.15;54.36;101298.42;107054;1258;22517;-56
2024/04/20 02:38:04;;;;;;;;;;;;;;;15.14;54.35;101289.04;107141;1264;25353;-57
2024/04/20 02:40:30;;;;;;;;;;;;;;;15.12;54.44;101290.14;106999;1264;25429;-57
2024/04/20 02:42:57;;;;;;;;;;;;;;;15.11;54.52;101288.26;107206;1254;25318;-57
2024/04/20 02:45:25;;;;;;;;;;;;;;;15.11;54.62;101285.29;107194;1257;25404;-56
2024/04/20 02:47:52;;;;;;;;;;;;;;;15.09;54.64;101288.33;107085;1251;25452;-57
2024/04/20 02:50:20;;;;;;;;;;;;;;;15.08;54.81;101287.84;107191;1264;25337;-57
2024/04/20 02:52:47;;;;;;;;;;;;;;;15.10;54.82;101293.21;106831;1265;24222;-56
2024/04/20 02:55:14;;;;;;;;;;;;;;;15.14;54.72;101292.70;107204;1263;25334;-56
2024/04/20 02:57:41;;;;;;;;;;;;;;;15.15;54.64;101293.71;107140;1254;24190;-56
2024/04/20 03:00:08;;;;;;;;;;;;;;;15.16;54.71;101295.09;106854;1267;25334;-57
2024/04/20 03:02:35;;;;;;;;;;;;;;;15.16;54.64;101296.48;106845;1260;25343;-56
2024/04/20 03:05:04;;;;;;;;;;;;;;;15.16;54.73;101293.52;107146;1260;25430;-57
2024/04/20 03:07:31;;;;;;;;;;;;;;;15.17;54.72;101290.51;107162;1263;25315;-57
2024/04/20 03:09:58;;;;;;;;;;;;;;;15.17;54.85;101287.71;107126;1260;25326;-57
2024/04/20 03:12:26;;;;;;;;;;;;;;;15.18;54.91;101283.50;107202;1251;25337;-56
2024/04/20 03:14:53;;;;;;;;;;;;;;;15.18;54.94;101281.21;107055;1267;25337;-57
2024/04/20 03:17:20;;;;;;;;;;;;;;;15.18;55.00;101281.05;107055;1255;25343;-56
2024/04/20 03:19:47;;;;;;;;;;;;;;;15.18;55.09;101280.52;107092;1257;25405;-57
2024/04/20 03:22:15;;;;;;;;;;;;;;;15.19;55.13;101282.77;107022;1270;25398;-57
2024/04/20 03:24:42;;;;;;;;;;;;;;;15.19;55.20;101294.61;107150;1251;22509;-57
2024/04/20 03:27:09;;;;;;;;;;;;;;;15.19;55.13;101301.63;107193;1257;25340;-56
2024/04/20 03:29:36;;;;;;;;;;;;;;;15.21;55.23;101298.77;107117;1250;25386;-57
2024/04/20 03:32:03;;;;;;;;;;;;;;;15.23;55.15;101298.86;107186;1254;25340;-57
2024/04/20 03:34:30;;;;;;;;;;;;;;;15.24;55.17;101296.75;107117;1264;25344;-56
2024/04/20 03:36:57;;;;;;;;;;;;;;;15.24;55.14;101292.91;107074;1257;25459;-57
2024/04/20 03:39:24;;;;;;;;;;;;;;;15.25;55.17;101294.46;107154;1254;25373;-56
2024/04/20 03:41:51;;;;;;;;;;;;;;;15.24;55.30;101293.42;107167;1257;25315;-56
2024/04/20 03:44:18;;;;;;;;;;;;;;;15.25;55.39;101290.79;107104;1257;25340;-57
2024/04/20 03:46:46;;;;;;;;;;;;;;;15.25;55.54;101278.73;106914;1269;25442;-57
2024/04/20 03:49:13;;;;;;;;;;;;;;;15.25;55.71;101270.31;107200;1263;22641;-57
2024/04/20 03:51:40;;;;;;;;;;;;;;;15.27;55.86;101260.67;106898;1255;25402;-57
2024/04/20 03:54:07;;;;;;;;;;;;;;;15.27;56.00;101259.58;107055;1260;25385;-57
2024/04/20 03:56:34;;;;;;;;;;;;;;;15.29;56.16;101261.98;107250;1263;25325;-56
2024/04/20 03:59:02;;;;;;;;;;;;;;;15.31;56.20;101263.83;107076;1267;24193;-57
2024/04/20 04:01:29;;;;;;;;;;;;;;;15.34;56.28;101262.86;107233;1264;25331;-57
2024/04/20 04:03:57;;;;;;;;;;;;;;;15.36;56.37;101257.20;107184;1257;25316;-57
2024/04/20 04:06:24;;;;;;;;;;;;;;;15.38;56.42;101252.23;106995;1260;25349;-57
2024/04/20 04:08:50;;;;;;;;;;;;;;;15.40;56.45;101249.52;106836;1253;24244;-57
2024/04/20 04:11:19;;;;;;;;;;;;;;;15.45;56.53;101253.79;107079;1257;25340;-57
2024/04/20 04:13:46;;;;;;;;;;;;;;;15.47;56.53;101254.04;107082;1254;25475;-56
2024/04/20 04:16:13;;;;;;;;;;;;;;;15.50;56.40;101249.92;106927;1258;25331;-57
2024/04/20 04:18:40;;;;;;;;;;;;;;;15.52;56.28;101243.58;107109;1258;25568;-57
2024/04/20 04:21:10;;;;;;;;;;;;;;;15.53;56.19;101246.35;107168;1264;25343;-57
2024/04/20 04:23:37;;;;;;;;;;;;;;;15.55;56.19;101249.92;106890;1264;25404;-57
2024/04/20 04:26:05;;;;;;;;;;;;;;;15.57;56.20;101245.48;107114;1257;25453;-56
2024/04/20 04:28:32;;;;;;;;;;;;;;;15.60;56.06;101237.33;107171;1257;25315;-57
2024/04/20 04:30:59;;;;;;;;;;;;;;;15.63;56.01;101235.50;107081;1254;22584;-57
2024/04/20 04:33:26;;;;;;;;;;;;;;;15.65;55.94;101235.61;107233;1253;24196;-57
2024/04/20 04:35:59;;;;;;;;;;;;;;;15.67;56.00;101233.25;107228;1256;25368;-57
2024/04/20 04:38:26;;;;;;;;;;;;;;;15.72;55.96;101229.41;106910;1272;25353;-56
2024/04/20 04:40:56;;;;;;;;;;;;;;;15.77;55.87;101226.42;107066;1254;25341;-56
2024/04/20 04:43:22;;;;;;;;;;;;;;;15.81;55.76;101226.46;106789;1258;25398;-57
2024/04/20 04:45:49;;;;;;;;;;;;;;;15.86;55.75;101228.71;107117;1258;25405;-57
2024/04/20 04:48:18;;;;;;;;;;;;;;;15.92;55.64;101229.20;107094;1261;25333;-57
2024/04/20 04:50:48;;;;;;;;;;;;;;;15.98;55.59;101232.30;107005;1251;25408;-57
2024/04/20 04:53:15;;;;;;;;;;;;;;;16.04;55.43;101230.84;104031;1251;1003572;-57
2024/04/20 04:55:43;;;;;;;;;;;;;;;16.09;55.33;101228.02;106678;1258;25324;-57
2024/04/20 04:58:10;;;;;;;;;;;;;;;16.15;55.12;101228.34;106917;1254;25314;-57
2024/04/20 05:00:37;;;;;;;;;;;;;;;16.21;55.11;101232.14;106708;1259;25382;-57
2024/04/20 05:03:04;;;;;;;;;;;;;;;16.27;54.97;101234.00;106789;1254;25223;-56
2024/04/20 05:05:31;;;;;;;;;;;;;;;16.35;55.02;101232.85;107003;1251;25322;-56
2024/04/20 05:07:58;;;;;;;;;;;;;;;16.43;54.84;101234.65;107123;1254;25412;-57
2024/04/20 05:10:27;;;;;;;;;;;;;;;16.48;54.61;101233.39;107078;1251;25332;-57
2024/04/20 05:12:54;;;;;;;;;;;;;;;16.56;54.61;101235.06;107209;1253;25353;-57
2024/04/20 05:15:21;;;;;;;;;;;;;;;16.66;54.35;101233.09;106405;1260;1003576;-57
2024/04/20 05:17:48;;;;;;;;;;;;;;;16.75;54.21;101233.76;106919;1267;25888;-57
2024/04/20 05:20:15;;;;;;;;;;;;;;;16.84;53.89;101237.44;106885;1267;25324;-57
2024/04/20 05:22:45;;;;;;;;;;;;;;;16.92;53.65;101234.64;107118;1257;25344;-57
2024/04/20 05:25:12;;;;;;;;;;;;;;;16.98;53.35;101231.27;107153;1254;25445;-58
2024/04/20 05:27:39;;;;;;;;;;;;;;;17.04;52.98;101233.46;107179;1253;23858;-57
2024/04/20 05:30:07;;;;;;;;;;;;;;;17.10;52.78;101231.80;107068;1256;25337;-57
2024/04/20 05:32:34;;;;;;;;;;;;;;;17.16;52.65;101234.17;106901;1258;25337;-57
2024/04/20 05:35:01;;;;;;;;;;;;;;;17.23;52.38;101232.14;106866;1270;25353;-56
2024/04/20 05:37:28;;;;;;;;;;;;;;;17.29;51.95;101234.52;107171;1257;25497;-57
2024/04/20 05:39:55;;;;;;;;;;;;;;;17.37;51.68;101231.36;107141;1264;25334;-57
2024/04/20 05:42:22;;;;;;;;;;;;;;;17.47;51.49;101230.61;107120;1261;25785;-57
2024/04/20 05:44:49;;;;;;;;;;;;;;;17.60;51.07;101227.95;106871;1267;25414;-57
2024/04/20 05:47:16;;;;;;;;;;;;;;;17.73;50.69;101223.13;106880;1270;25334;-57
2024/04/20 05:49:43;;;;;;;;;;;;;;;17.89;50.40;101222.10;106887;1261;25452;-57
2024/04/20 05:52:10;;;;;;;;;;;;;;;18.02;49.68;101226.43;106968;1269;25315;-57
2024/04/20 05:54:37;;;;;;;;;;;;;;;18.15;49.15;101229.20;107134;1254;22505;-57
2024/04/20 05:57:04;;;;;;;;;;;;;;;18.27;48.80;101227.91;107201;1256;25373;-57
2024/04/20 05:59:31;;;;;;;;;;;;;;;18.44;48.17;101225.54;107181;1262;25363;-57
2024/04/20 06:01:58;;;;;;;;;;;;;;;18.68;47.20;101223.35;107079;1257;25321;-58
2024/04/20 06:04:25;;;;;;;;;;;;;;;19.00;46.25;101223.90;107111;1254;25349;-57
2024/04/20 06:06:52;;;;;;;;;;;;;;;19.34;45.02;101221.69;107122;1254;25462;-57
2024/04/20 06:09:20;;;;;;;;;;;;;;;19.66;43.57;101221.49;107061;1257;25331;-57
2024/04/20 06:11:46;;;;;;;;;;;;;;;19.92;42.64;101220.76;106923;1267;25538;-57
2024/04/20 06:14:14;;;;;;;;;;;;;;;20.18;42.21;101223.59;107096;1257;25345;-57
2024/04/20 06:16:41;;;;;;;;;;;;;;;20.49;41.51;101226.48;107147;1254;25440;-55
2024/04/20 06:19:08;;;;;;;;;;;;;;;20.72;40.76;101226.24;106676;1267;25462;-55
2024/04/20 06:21:34;;;;;;;;;;;;;;;20.83;39.81;101231.09;107132;1254;25337;-55
2024/04/20 06:24:01;;;;;;;;;;;;;;;20.82;39.22;101237.31;107084;1270;25442;-57
2024/04/20 06:26:30;;;;;;;;;;;;;;;20.75;39.05;101236.31;107173;1254;25411;-58
2024/04/20 06:28:58;;;;;;;;;;;;;;;20.69;39.04;101234.89;107113;1253;25392;-56
2024/04/20 06:31:24;;;;;;;;;;;;;;;20.69;38.72;101230.61;106950;1260;25337;-57
2024/04/20 06:33:51;;;;;;;;;;;;;;;20.74;38.80;101221.17;107075;1254;25359;-55
2024/04/20 06:36:18;;;;;;;;;;;;;;;20.81;38.72;101220.23;107145;1251;25324;-56
2024/04/20 06:38:45;;;;;;;;;;;;;;;20.89;38.58;101208.52;107096;1263;22502;-55
2024/04/20 06:41:12;;;;;;;;;;;;;;;20.92;38.28;101206.08;107162;1263;25465;-56
2024/04/20 06:43:39;;;;;;;;;;;;;;;20.86;38.28;101202.36;107079;1251;25315;-55
2024/04/20 06:46:08;;;;;;;;;;;;;;;20.69;38.45;101208.96;107083;1254;25402;-55
2024/04/20 06:48:36;;;;;;;;;;;;;;;20.50;39.66;101212.17;107101;1251;25405;-55
2024/04/20 06:51:03;;;;;;;;;;;;;;;20.31;40.62;101210.95;107155;1253;25344;-55
2024/04/20 06:53:30;;;;;;;;;;;;;;;20.15;41.46;101210.70;107067;1253;25349;-55
2024/04/20 06:56:00;;;;;;;;;;;;;;;20.04;41.83;101205.16;107138;1266;25358;-55
2024/04/20 06:58:27;;;;;;;;;;;;;;;19.98;41.94;101205.47;107177;1251;25353;-55
2024/04/20 07:00:54;;;;;;;;;;;;;;;19.95;41.93;101204.58;107118;1254;25363;-55
2024/04/20 07:03:22;;;;;;;;;;;;;;;19.96;41.87;101204.55;107100;1267;25430;-56
2024/04/20 07:05:52;;;;;;;;;;;;;;;19.84;41.84;101203.11;107066;1253;22553;-55
2024/04/20 07:08:19;;;;;;;;;;;;;;;19.73;41.97;101199.81;107173;1266;25508;-55
2024/04/20 07:10:55;;;;;;;;;;;;;;;19.65;42.00;101200.25;107138;1266;25325;-55
2024/04/20 07:13:24;;;;;;;;;;;;;;;19.62;41.96;101200.91;106921;1268;25392;-55
2024/04/20 07:15:51;;;;;;;;;;;;;;;19.59;41.52;101196.98;106902;1266;25325;-55
2024/04/20 07:18:18;;;;;;;;;;;;;;;19.56;41.61;101195.27;107088;1263;25392;-55
2024/04/20 07:20:46;;;;;;;;;;;;;;;19.56;41.68;101193.30;106839;1256;25325;-55
2024/04/20 07:23:12;;;;;;;;;;;;;;;19.57;41.77;101191.83;106987;1270;25385;-56
2024/04/20 07:25:40;;;;;;;;;;;;;;;19.67;41.61;101187.46;107062;1257;25334;-55
2024/04/20 07:28:07;;;;;;;;;;;;;;;19.77;41.01;101184.42;107230;1267;25352;-55
2024/04/20 07:30:34;;;;;;;;;;;;;;;19.86;40.77;101184.31;106861;1269;25343;-55
2024/04/20 07:33:01;;;;;;;;;;;;;;;19.91;40.20;101181.58;106385;1274;25318;-55
2024/04/20 07:35:29;;;;;;;;;;;;;;;19.88;40.09;101179.81;106935;1267;25343;-55
2024/04/20 07:37:56;;;;;;;;;;;;;;;19.80;40.04;101171.42;107048;1271;25362;-55
2024/04/20 07:40:23;;;;;;;;;;;;;;;19.72;40.24;101167.31;107180;1257;25522;-55
2024/04/20 07:42:50;;;;;;;;;;;;;;;19.65;40.10;101159.73;106841;1267;25358;-55
2024/04/20 07:45:17;;;;;;;;;;;;;;;19.57;39.83;101156.98;106854;1274;25429;-55
2024/04/20 07:47:44;;;;;;;;;;;;;;;19.51;39.84;101153.43;106881;1267;25328;-55
2024/04/20 07:50:12;;;;;;;;;;;;;;;19.42;39.84;101152.27;107106;1266;25392;-55
2024/04/20 07:52:39;;;;;;;;;;;;;;;19.36;40.18;101146.29;106838;1269;25537;-57
2024/04/20 07:55:06;;;;;;;;;;;;;;;19.32;39.99;101140.30;106924;1269;23855;-56
2024/04/20 07:57:33;;;;;;;;;;;;;;;19.27;40.14;101138.09;107198;1266;25353;-56
2024/04/20 08:00:01;;;;;;;;;;;;;;;19.20;40.43;101134.24;107085;1267;25343;-55
2024/04/20 08:02:31;;;;;;;;;;;;;;;19.12;40.70;101131.17;107055;1267;25382;-56
2024/04/20 08:04:58;;;;;;;;;;;;;;;19.05;40.72;101128.52;107067;1260;25359;-56
2024/04/20 08:07:25;;;;;;;;;;;;;;;19.00;40.60;101120.71;107122;1266;25340;-57
2024/04/20 08:09:52;;;;;;;;;;;;;;;18.92;40.94;101115.83;107083;1251;25474;-57
2024/04/20 08:12:19;;;;;;;;;;;;;;;18.90;41.35;101114.53;106989;1267;25347;-57
2024/04/20 08:14:46;;;;;;;;;;;;;;;18.95;41.33;101113.20;106935;1266;25352;-57
2024/04/20 08:17:13;;;;;;;;;;;;;;;19.04;40.99;101105.55;106921;1267;25331;-57
2024/04/20 08:19:40;;;;;;;;;;;;;;;19.12;40.80;101109.39;106755;1267;25349;-57
2024/04/20 08:22:07;;;;;;;;;;;;;;;19.21;40.60;101105.02;106980;1252;25474;-57
2024/04/20 08:24:35;;;;;;;;;;;;;;;19.28;40.68;101099.90;107124;1253;25340;-56
2024/04/20 08:27:02;;;;;;;;;;;;;;;19.33;40.38;101091.71;106888;1266;23191;-57
2024/04/20 08:29:29;;;;;;;;;;;;;;;19.36;40.15;101087.50;107114;1270;22642;-57
2024/04/20 08:31:56;;;;;;;;;;;;;;;19.37;39.81;101086.24;105655;1267;1003597;-57
2024/04/20 08:34:23;;;;;;;;;;;;;;;19.37;39.66;101092.38;107017;1267;25322;-57
2024/04/20 08:36:50;;;;;;;;;;;;;;;19.40;39.41;101095.77;107204;1266;24231;-57
2024/04/20 08:39:17;;;;;;;;;;;;;;;19.40;39.25;101101.41;106925;1269;25631;-57
2024/04/20 08:42:05;;;;;;;;;;;;;;;19.40;39.15;101103.14;107124;1266;25335;-57
2024/04/20 08:44:31;;;;;;;;;;;;;;;19.40;39.31;101103.85;107180;1266;25367;-57
2024/04/20 08:46:58;;;;;;;;;;;;;;;19.48;39.26;101101.14;107100;1267;25346;-58
2024/04/20 08:49:25;;;;;;;;;;;;;;;19.53;39.18;101091.39;107086;1266;25337;-57
2024/04/20 08:51:56;;;;;;;;;;;;;;;19.58;38.93;101092.20;107096;1269;25377;-57
2024/04/20 08:54:23;;;;;;;;;;;;;;;19.59;38.68;101087.54;107165;1266;25510;-57
2024/04/20 08:56:50;;;;;;;;;;;;;;;19.58;38.58;101084.48;107069;1267;25400;-57
2024/04/20 08:59:17;;;;;;;;;;;;;;;19.61;38.55;101078.13;107136;1266;23256;-57
2024/04/20 09:01:44;;;;;;;;;;;;;;;19.62;38.12;101078.42;106814;1267;25912;-58
2024/04/20 09:04:11;;;;;;;;;;;;;;;19.62;38.16;101077.03;106819;1267;24352;-57
2024/04/20 09:06:38;;;;;;;;;;;;;;;19.63;38.18;101077.32;107077;1266;25495;-57
2024/04/20 09:09:05;;;;;;;;;;;;;;;19.67;38.31;101073.58;107095;1269;25426;-57
2024/04/20 09:11:32;;;;;;;;;;;;;;;19.73;38.49;101079.05;106991;1269;25353;-57
2024/04/20 09:14:03;;;;;;;;;;;;;;;19.81;38.31;101077.18;107112;1266;22513;-57
2024/04/20 09:16:30;;;;;;;;;;;;;;;19.86;38.47;101074.11;107196;1266;25363;-57
2024/04/20 09:19:00;;;;;;;;;;;;;;;19.88;38.29;101070.44;107156;1266;25475;-57
2024/04/20 09:21:28;;;;;;;;;;;;;;;19.88;38.08;101068.33;107190;1253;25375;-57
2024/04/20 09:24:06;;;;;;;;;;;;;;;19.86;37.95;101054.20;107174;1267;22512;-57
2024/04/20 09:26:33;;;;;;;;;;;;;;;19.84;37.88;101049.22;106905;1266;22648;-57
2024/04/20 09:29:00;;;;;;;;;;;;;;;19.82;37.83;101047.91;107101;1267;23273;-57
2024/04/20 09:31:28;;;;;;;;;;;;;;;19.83;37.83;101037.84;107112;1270;25387;-57
2024/04/20 09:33:59;;;;;;;;;;;;;;;19.85;37.78;101036.64;107078;1266;25315;-57
2024/04/20 09:36:26;;;;;;;;;;;;;;;19.88;37.49;101034.36;107129;1266;25353;-57
2024/04/20 09:38:53;;;;;;;;;;;;;;;19.90;37.29;101028.29;107044;1267;25379;-58
2024/04/20 09:41:20;;;;;;;;;;;;;;;19.85;37.18;101028.17;107086;1267;24331;-57
2024/04/20 09:43:50;;;;;;;;;;;;;;;19.79;37.38;101029.04;106880;1269;25347;-57
2024/04/20 09:46:17;;;;;;;;;;;;;;;19.71;37.28;101029.70;107028;1269;25387;-57
2024/04/20 09:48:44;;;;;;;;;;;;;;;19.64;37.40;101020.24;107188;1267;25390;-57
2024/04/20 09:51:23;;;;;;;;;;;;;;;19.62;37.40;101013.11;106927;1267;25325;-57
2024/04/20 09:53:51;;;;;;;;;;;;;;;19.61;37.18;101011.08;107183;1254;25328;-56
2024/04/20 09:56:19;;;;;;;;;;;;;;;19.61;37.08;101009.86;107092;1270;25353;-57
2024/04/20 09:58:46;;;;;;;;;;;;;;;19.60;37.03;101004.77;107159;1266;25340;-56
2024/04/20 10:01:16;;;;;;;;;;;;;;;19.60;37.02;101010.59;107129;1266;25353;-57
2024/04/20 10:03:44;;;;;;;;;;;;;;;19.64;36.78;101009.67;107093;1266;24271;-57
2024/04/20 10:06:12;;;;;;;;;;;;;;;19.67;36.63;101004.58;107155;1266;25321;-57
2024/04/20 10:08:41;;;;;;;;;;;;;;;19.69;36.21;101001.65;106842;1271;25315;-57
2024/04/20 10:11:09;;;;;;;;;;;;;;;19.67;35.93;101003.15;106700;1270;25331;-57
2024/04/20 10:13:37;;;;;;;;;;;;;;;19.65;36.11;100998.36;106823;1269;25602;-57
2024/04/20 10:16:05;;;;;;;;;;;;;;;19.61;36.23;100997.90;106862;1269;25359;-57
2024/04/20 10:18:32;;;;;;;;;;;;;;;19.57;36.48;100999.31;106775;1269;24275;-57
2024/04/20 10:20:59;;;;;;;;;;;;;;;19.54;36.22;100998.44;106760;1270;25479;-57
2024/04/20 10:23:26;;;;;;;;;;;;;;;19.50;36.36;101001.45;106833;1271;25399;-56
2024/04/20 10:25:53;;;;;;;;;;;;;;;19.48;36.58;100995.21;106839;1269;25355;-57
2024/04/20 10:28:27;;;;;;;;;;;;;;;19.47;36.82;100991.92;106866;1269;25408;-56
2024/04/20 10:30:57;;;;;;;;;;;;;;;19.47;36.46;100992.60;106674;1275;25443;-57
2024/04/20 10:33:25;;;;;;;;;;;;;;;19.49;36.69;100991.46;106696;1257;25468;-57
2024/04/20 10:35:59;;;;;;;;;;;;;;;19.54;36.57;100983.66;106700;1269;25405;-56
2024/04/20 10:38:26;;;;;;;;;;;;;;;19.58;36.25;100983.46;106580;1269;25322;-57
2024/04/20 10:40:53;;;;;;;;;;;;;;;19.60;36.30;100980.52;106696;1273;25325;-56
2024/04/20 10:43:21;;;;;;;;;;;;;;;19.62;36.08;100977.08;107161;1267;25332;-57
2024/04/20 10:46:05;;;;;;;;;;;;;;;19.63;36.16;100971.89;107522;1266;25526;-57
2024/04/20 10:48:33;;;;;;;;;;;;;;;19.63;36.16;100957.27;106995;1267;22508;-58
2024/04/20 10:51:01;;;;;;;;;;;;;;;19.60;35.97;100949.18;106947;1272;22519;-57
2024/04/20 10:53:28;;;;;;;;;;;;;;;19.54;35.68;100948.27;107204;1269;25356;-56
2024/04/20 10:55:56;;;;;;;;;;;;;;;19.50;35.53;100946.20;107389;1266;25469;-56
2024/04/20 10:58:26;;;;;;;;;;;;;;;19.50;35.62;100953.08;107011;1267;25353;-57
2024/04/20 11:00:57;;;;;;;;;;;;;;;19.52;35.60;100950.52;107304;1255;25353;-56
2024/04/20 11:03:24;;;;;;;;;;;;;;;19.53;35.73;100951.69;106977;1267;25475;-57
2024/04/20 11:05:54;;;;;;;;;;;;;;;19.53;36.39;100947.09;107130;1266;22509;-57
2024/04/20 11:08:23;;;;;;;;;;;;;;;19.54;36.88;100947.23;107167;1267;25331;-57
2024/04/20 11:10:51;;;;;;;;;;;;;;;19.53;37.46;100942.71;107141;1263;23887;-57
2024/04/20 11:13:19;;;;;;;;;;;;;;;19.52;37.62;100940.45;107296;1266;25478;-57
2024/04/20 11:15:46;;;;;;;;;;;;;;;19.50;37.09;100944.42;107404;1267;25539;-57
2024/04/20 11:18:13;;;;;;;;;;;;;;;19.47;37.25;100937.52;107323;1267;23297;-57
2024/04/20 11:20:40;;;;;;;;;;;;;;;19.44;37.63;100925.59;107102;1267;25513;-58
2024/04/20 11:23:07;;;;;;;;;;;;;;;19.42;38.31;100918.49;107066;1267;25610;-57
2024/04/20 11:25:34;;;;;;;;;;;;;;;19.39;38.51;100916.55;107047;1266;25402;-56
2024/04/20 11:28:02;;;;;;;;;;;;;;;19.35;38.74;100912.05;107199;1266;24291;-55
2024/04/20 11:30:41;;;;;;;;;;;;;;;19.31;38.94;100909.02;106916;1270;25405;-56
2024/04/20 11:33:08;;;;;;;;;;;;;;;19.28;39.13;100909.36;106949;1267;25324;-56
2024/04/20 11:35:35;;;;;;;;;;;;;;;19.27;39.35;100905.20;106931;1269;25299;-56
2024/04/20 11:38:03;;;;;;;;;;;;;;;19.27;39.55;100903.82;107048;1266;25343;-56
2024/04/20 11:40:30;;;;;;;;;;;;;;;19.27;39.66;100899.23;107092;1267;25447;-56
2024/04/20 11:42:58;;;;;;;;;;;;;;;19.27;39.65;100893.97;107068;1270;25474;-56
2024/04/20 11:45:26;;;;;;;;;;;;;;;19.27;39.84;100892.56;107183;1266;25352;-56
2024/04/20 11:47:53;;;;;;;;;;;;;;;19.27;40.14;100888.51;107149;1266;25464;-56
2024/04/20 11:50:22;;;;;;;;;;;;;;;19.28;40.37;100882.30;107215;1266;25542;-56
2024/04/20 11:55:41;;;;;;;;;;;;;;;19.25;40.21;100879.64;107239;1266;25410;-54
2024/04/20 11:58:08;;;;;;;;;;;;;;;19.24;40.23;100879.75;107144;1267;25404;-56
2024/04/20 12:00:35;;;;;;;;;;;;;;;19.22;40.66;100876.69;107108;1266;24288;-56
2024/04/20 12:03:03;;;;;;;;;;;;;;;19.19;40.64;100865.73;107104;1266;25465;-56
2024/04/20 12:05:30;;;;;;;;;;;;;;;19.17;40.67;100862.52;107114;1266;22507;-56
2024/04/20 12:08:00;;;;;;;;;;;;;;;19.15;40.81;100866.13;107174;1260;22500;-56
2024/04/20 12:10:27;;;;;;;;;;;;;;;19.15;41.52;100868.78;106825;1266;25340;-56
2024/04/20 12:12:55;;;;;;;;;;;;;;;19.15;41.52;100867.22;107152;1267;25396;-57
2024/04/20 12:15:22;;;;;;;;;;;;;;;19.14;41.69;100863.75;107128;1270;25392;-57
2024/04/20 12:17:49;;;;;;;;;;;;;;;19.13;42.06;100863.77;106932;1267;25370;-57
2024/04/20 12:20:16;;;;;;;;;;;;;;;19.14;42.40;100863.06;107039;1266;241130;-56
2024/04/20 12:22:44;;;;;;;;;;;;;;;19.13;42.70;100862.73;106374;1266;1003505;-56
2024/04/20 12:25:11;;;;;;;;;;;;;;;19.13;43.15;100864.88;107112;1270;25322;-56
2024/04/20 12:27:38;;;;;;;;;;;;;;;19.12;43.32;100859.11;107103;1267;25324;-56
2024/04/20 12:30:06;;;;;;;;;;;;;;;19.13;43.80;100856.79;107187;1266;25340;-56